Time;durP1;ratioP1;P1;durP2;ratioP2;P2;SDS_P1;SDS_P2;PMS_P1;PMS_P2;Temp;Humidity;BMP_temperature;BMP_pressure;BME280_temperature;BME280_humidity;BME280_pressure;Samples;Min_cycle;Max_cycle;Signal;HPM_P1;HPM_P2
2021/09/30 13:24:28;;;;;;;4.32;1.48;;;;;;;13.76;65.10;102272.84;5012044;28;20391;-78
2021/09/30 13:26:53;;;;;;;3.15;1.30;;;;;;;13.74;63.98;102258.75;5009529;28;20038;-78
2021/09/30 13:29:18;;;;;;;3.15;1.27;;;;;;;13.76;62.82;102261.34;5009368;28;20030;-82
2021/09/30 13:31:44;;;;;;;5.78;1.48;;;;;;;13.93;62.55;102253.47;5010765;28;20022;-78
2021/09/30 13:34:09;;;;;;;2.50;1.23;;;;;;;14.10;63.02;102243.88;5010277;28;20057;-78
2021/09/30 13:36:35;;;;;;;4.40;1.63;;;;;;;14.08;62.62;102237.75;5009977;28;20026;-77
2021/09/30 13:39:00;;;;;;;3.95;1.33;;;;;;;14.51;62.13;102240.22;5008992;28;20088;-79
2021/09/30 13:41:26;;;;;;;4.97;1.30;;;;;;;14.39;61.44;102231.00;5008675;28;20477;-78
2021/09/30 13:43:51;;;;;;;6.40;1.27;;;;;;;14.45;60.71;102221.88;5010222;28;20461;-79
2021/09/30 13:46:17;;;;;;;4.82;1.52;;;;;;;14.63;60.46;102228.13;5010767;28;20446;-79
2021/09/30 13:48:43;;;;;;;2.83;1.30;;;;;;;14.50;60.91;102225.19;5009998;28;20029;-77
2021/09/30 13:51:08;;;;;;;6.07;1.70;;;;;;;14.61;60.59;102222.00;5010064;28;20460;-78
2021/09/30 13:53:34;;;;;;;4.45;1.17;;;;;;;14.40;60.75;102211.44;5010325;28;20049;-77
2021/09/30 13:55:59;;;;;;;5.72;1.50;;;;;;;14.33;61.37;102213.56;5009754;28;20038;-78
2021/09/30 13:58:24;;;;;;;4.15;1.10;;;;;;;14.03;62.43;102199.88;5010240;28;20038;-80
2021/09/30 14:00:50;;;;;;;6.22;1.60;;;;;;;13.99;62.32;102196.50;5009941;28;20033;-77
2021/09/30 14:03:15;;;;;;;6.30;1.73;;;;;;;13.90;62.84;102202.25;5010277;28;20034;-80
2021/09/30 14:05:41;;;;;;;4.38;1.45;;;;;;;13.80;63.20;102194.69;5009834;28;20034;-78
2021/09/30 14:08:08;;;;;;;7.70;1.70;;;;;;;13.82;64.08;102189.31;5008463;28;20513;-78
2021/09/30 14:10:33;;;;;;;4.68;1.60;;;;;;;13.92;64.80;102184.41;5008625;28;20389;-78
2021/09/30 14:12:59;;;;;;;5.40;1.65;;;;;;;13.64;65.25;102194.50;5009781;28;20034;-79
2021/09/30 14:15:24;;;;;;;6.00;1.67;;;;;;;13.45;66.43;102202.38;5009543;28;20168;-79
2021/09/30 14:17:50;;;;;;;4.10;1.52;;;;;;;13.50;67.07;102191.53;5009416;28;20027;-82
2021/09/30 14:20:17;;;;;;;3.80;1.60;;;;;;;13.52;66.68;102185.28;5008065;28;20029;-76
2021/09/30 14:22:42;;;;;;;6.78;1.85;;;;;;;13.51;67.12;102186.19;5014874;28;20054;-77
2021/09/30 14:25:08;;;;;;;6.10;1.63;;;;;;;13.37;66.99;102192.09;5028938;28;20041;-77
2021/09/30 14:27:34;;;;;;;8.65;1.85;;;;;;;13.32;66.55;102181.66;5029296;28;20375;-77
2021/09/30 14:30:00;;;;;;;6.25;1.77;;;;;;;13.38;66.93;102191.19;5029191;28;20026;-77
2021/09/30 14:32:25;;;;;;;7.43;2.03;;;;;;;13.10;67.96;102167.59;5028997;28;20072;-76
2021/09/30 14:34:50;;;;;;;9.43;2.60;;;;;;;13.01;68.10;102168.81;5020906;28;20032;-78
2021/09/30 14:37:16;;;;;;;5.10;2.05;;;;;;;12.96;68.53;102167.22;5015683;28;20045;-80
2021/09/30 14:39:42;;;;;;;6.65;1.95;;;;;;;12.91;69.18;102145.31;5015936;28;20026;-80
2021/09/30 14:42:09;;;;;;;5.53;1.92;;;;;;;12.91;69.42;102142.66;5015427;28;20030;-78
2021/09/30 14:44:34;;;;;;;6.68;2.15;;;;;;;12.92;69.80;102133.78;5015737;28;20046;-78
2021/09/30 14:47:01;;;;;;;7.35;2.30;;;;;;;12.99;69.59;102138.81;5015647;28;20442;-79
2021/09/30 14:49:27;;;;;;;9.55;2.30;;;;;;;12.95;70.29;102140.75;5015610;28;20029;-78
2021/09/30 14:51:52;;;;;;;3.58;2.00;;;;;;;12.94;70.27;102133.72;5015528;28;20088;-78
2021/09/30 14:54:19;;;;;;;5.82;1.80;;;;;;;12.99;70.11;102133.53;5015768;28;20037;-79
2021/09/30 14:56:47;;;;;;;8.52;2.00;;;;;;;12.97;70.05;102128.28;5014291;28;20026;-80
2021/09/30 14:59:12;;;;;;;8.45;1.98;;;;;;;13.04;70.31;102132.38;5015393;28;20113;-78
2021/09/30 15:01:38;;;;;;;5.43;2.20;;;;;;;13.10;70.46;102133.06;5015320;28;20044;-79
2021/09/30 15:04:06;;;;;;;7.65;1.85;;;;;;;12.96;70.64;102123.88;5015225;28;20030;-78
2021/09/30 15:06:35;;;;;;;4.03;1.90;;;;;;;13.07;70.85;102126.06;5013829;28;20022;-80
2021/09/30 15:09:02;;;;;;;8.23;2.38;;;;;;;13.10;70.87;102115.31;5015426;28;20500;-78
2021/09/30 15:11:27;;;;;;;7.35;2.03;;;;;;;13.14;70.54;102124.00;5013819;28;20109;-79
2021/09/30 15:13:53;;;;;;;6.22;2.55;;;;;;;12.97;71.29;102115.00;5015308;28;20029;-80
2021/09/30 15:16:20;;;;;;;10.35;2.10;;;;;;;13.00;71.77;102103.38;5015086;28;20500;-79
2021/09/30 15:21:20;;;;;;;7.68;2.40;;;;;;;12.85;72.56;102099.59;5014963;28;20026;-78
2021/09/30 15:23:46;;;;;;;8.75;2.47;;;;;;;12.85;72.14;102105.75;5013638;28;20057;-77
2021/09/30 15:26:16;;;;;;;7.25;2.45;;;;;;;12.99;71.57;102091.88;5015263;28;20041;-78
2021/09/30 15:28:41;;;;;;;5.57;1.83;;;;;;;13.08;70.48;102087.97;5015280;28;20030;-76
2021/09/30 15:31:07;;;;;;;4.40;1.60;;;;;;;13.21;69.88;102088.28;5021557;28;20030;-77
2021/09/30 15:33:33;;;;;;;7.45;1.98;;;;;;;13.21;69.42;102083.84;5025084;28;20472;-76
2021/09/30 15:35:59;;;;;;;5.53;2.03;;;;;;;13.19;68.89;102079.53;5023572;28;20026;-77
2021/09/30 15:38:26;;;;;;;5.35;1.70;;;;;;;13.27;67.97;102085.34;5015572;28;20377;-77
2021/09/30 15:40:56;;;;;;;5.22;2.10;;;;;;;13.36;67.15;102084.09;5015160;28;20068;-79
2021/09/30 15:43:24;;;;;;;5.43;1.67;;;;;;;13.34;66.67;102072.66;5014701;28;20048;-79
2021/09/30 15:45:49;;;;;;;5.80;1.75;;;;;;;13.38;66.35;102076.06;5014042;28;20030;-78
2021/09/30 15:48:15;;;;;;;5.35;1.67;;;;;;;13.37;66.03;102063.72;5014620;28;20029;-78
2021/09/30 15:50:40;;;;;;;5.22;1.83;;;;;;;13.37;66.06;102061.91;5014670;28;20026;-78
2021/09/30 15:53:06;;;;;;;4.18;1.60;;;;;;;13.31;66.38;102067.50;5014689;28;20030;-79
2021/09/30 15:55:31;;;;;;;5.88;1.70;;;;;;;13.33;66.65;102045.25;5014520;28;20096;-78
2021/09/30 15:57:57;;;;;;;4.50;1.52;;;;;;;13.31;66.08;102055.09;5014557;28;20040;-76
2021/09/30 16:00:22;;;;;;;7.78;1.85;;;;;;;13.29;65.49;102062.25;5014666;28;20024;-78
2021/09/30 16:02:48;;;;;;;3.58;1.42;;;;;;;13.28;65.32;102047.25;4996723;28;20034;-77
2021/09/30 16:05:13;;;;;;;3.67;1.73;;;;;;;13.20;64.84;102038.75;5014302;28;20038;-77
2021/09/30 16:07:38;;;;;;;7.38;1.55;;;;;;;13.29;64.70;102046.31;5014594;28;20361;-78
2021/09/30 16:10:05;;;;;;;4.90;1.67;;;;;;;13.30;64.95;102052.50;5013263;28;20329;-77
2021/09/30 16:12:30;;;;;;;9.70;1.92;;;;;;;13.27;65.16;102034.03;5012993;28;20042;-77
2021/09/30 16:14:55;;;;;;;5.13;1.80;;;;;;;13.32;65.49;102039.97;5014075;28;20100;-79
2021/09/30 16:17:21;;;;;;;6.97;2.10;;;;;;;13.34;65.60;102030.16;5013979;28;20451;-77
2021/09/30 16:19:49;;;;;;;4.90;1.58;;;;;;;13.38;65.23;102033.53;5013813;28;20030;-78
2021/09/30 16:22:15;;;;;;;5.68;1.58;;;;;;;13.27;65.80;102028.72;5012368;28;20037;-78
2021/09/30 16:24:40;;;;;;;6.72;2.03;;;;;;;13.31;65.77;102027.66;5013828;28;20068;-79
2021/09/30 16:27:06;;;;;;;5.85;2.60;;;;;;;13.32;65.92;102019.59;5013909;28;20029;-79
2021/09/30 16:29:31;;;;;;;5.13;1.80;;;;;;;13.29;65.74;102018.88;5013587;28;20030;-78
2021/09/30 16:31:57;;;;;;;6.35;2.00;;;;;;;13.31;65.54;102025.00;5013625;28;20072;-78
2021/09/30 16:34:22;;;;;;;8.15;2.08;;;;;;;13.22;65.82;102015.66;5013556;28;20033;-78
2021/09/30 16:36:48;;;;;;;7.55;2.10;;;;;;;13.24;65.70;102010.28;5011872;23;20089;-80
2021/09/30 16:39:13;;;;;;;4.45;1.80;;;;;;;13.29;65.35;102002.94;4994265;28;20105;-78
2021/09/30 16:41:39;;;;;;;3.85;1.52;;;;;;;13.32;65.51;102021.38;4959993;28;20349;-80
2021/09/30 16:44:04;;;;;;;8.80;2.03;;;;;;;13.31;65.77;102007.25;4960421;28;20031;-79
2021/09/30 16:46:30;;;;;;;3.63;1.98;;;;;;;13.26;65.47;102001.28;4994526;28;20022;-78
2021/09/30 16:48:55;;;;;;;4.20;1.63;;;;;;;13.32;65.94;102002.78;4994594;28;20022;-81
2021/09/30 16:51:21;;;;;;;7.05;1.90;;;;;;;13.30;65.88;102002.03;4994359;28;20026;-79
2021/09/30 16:53:47;;;;;;;3.85;1.77;;;;;;;13.27;65.72;102010.13;4976254;28;20034;-78
2021/09/30 16:56:14;;;;;;;5.35;1.67;;;;;;;13.31;65.22;102009.03;4993777;28;20026;-82
2021/09/30 16:58:40;;;;;;;10.00;2.05;;;;;;;13.35;65.40;102004.47;4975851;28;20026;-79
2021/09/30 17:01:06;;;;;;;5.32;1.63;;;;;;;13.33;65.57;102002.75;4960359;28;20092;-79
2021/09/30 17:03:34;;;;;;;6.65;2.05;;;;;;;13.39;65.59;102004.25;4975957;28;20061;-79
2021/09/30 17:05:59;;;;;;;7.07;1.75;;;;;;;13.36;65.63;101998.22;4993264;28;20079;-79
2021/09/30 17:08:25;;;;;;;5.03;1.63;;;;;;;13.31;65.92;102001.94;4993437;28;20462;-81
2021/09/30 17:10:50;;;;;;;4.55;1.73;;;;;;;13.35;65.70;101997.38;4993380;28;20033;-78
2021/09/30 17:13:16;;;;;;;6.38;1.52;;;;;;;13.37;65.83;102005.25;4975899;28;20023;-80
2021/09/30 17:15:41;;;;;;;6.18;1.67;;;;;;;13.34;65.91;102000.94;4959859;28;20029;-79
2021/09/30 17:18:06;;;;;;;3.63;1.33;;;;;;;13.36;65.54;102000.88;4993357;28;20034;-79
2021/09/30 17:20:33;;;;;;;4.53;1.80;;;;;;;13.32;65.80;102000.13;4993524;28;20077;-79
2021/09/30 17:22:58;;;;;;;3.10;1.45;;;;;;;13.27;66.17;102002.16;4993644;28;20045;-78
2021/09/30 17:25:24;;;;;;;4.32;1.58;;;;;;;13.25;66.24;102004.00;4993292;28;20466;-79
2021/09/30 17:27:49;;;;;;;5.35;1.70;;;;;;;13.21;65.65;101996.19;4993273;28;20029;-79
2021/09/30 17:30:16;;;;;;;7.85;1.73;;;;;;;13.28;65.31;101987.94;4993365;28;20030;-80
2021/09/30 17:32:41;;;;;;;2.88;1.38;;;;;;;13.25;66.01;101990.75;4993286;28;20030;-80
2021/09/30 17:35:07;;;;;;;4.95;1.33;;;;;;;13.27;65.91;101995.03;4993440;28;20246;-79
2021/09/30 17:37:33;;;;;;;4.65;1.75;;;;;;;13.24;66.20;102005.81;4975575;28;20135;-80
2021/09/30 17:39:59;;;;;;;4.18;1.50;;;;;;;13.17;66.86;102010.56;4975288;28;20077;-79
2021/09/30 17:42:24;;;;;;;7.35;1.88;;;;;;;13.00;67.80;102007.78;4993028;28;20022;-79
2021/09/30 17:44:50;;;;;;;5.20;1.70;;;;;;;12.91;69.41;102007.25;4992913;28;20117;-78
2021/09/30 17:47:15;;;;;;;6.18;1.65;;;;;;;12.78;69.45;101990.16;4993174;28;20477;-79
2021/09/30 17:49:41;;;;;;;9.18;1.58;;;;;;;12.68;70.31;101989.69;4993641;28;20465;-79
2021/09/30 17:52:07;;;;;;;5.65;1.85;;;;;;;12.62;70.26;101988.19;4994299;28;20030;-78
2021/09/30 17:54:33;;;;;;;4.30;1.45;;;;;;;12.60;70.10;101971.44;4995828;28;20040;-77
2021/09/30 17:56:58;;;;;;;5.05;2.08;;;;;;;12.68;69.70;101987.03;4996423;28;20089;-79
2021/09/30 17:59:23;;;;;;;4.97;1.20;;;;;;;12.65;70.01;101979.22;5001188;28;20465;-77
2021/09/30 18:01:49;;;;;;;5.88;1.30;;;;;;;12.71;69.53;101979.81;4999121;28;20098;-80
2021/09/30 18:04:14;;;;;;;4.15;1.42;;;;;;;12.71;68.81;101987.78;4994165;28;20026;-77
2021/09/30 18:06:40;;;;;;;3.33;1.40;;;;;;;12.76;67.97;101981.38;4995198;28;20030;-79
2021/09/30 18:09:05;;;;;;;4.10;1.33;;;;;;;12.81;67.66;101987.38;4993779;28;20390;-80
2021/09/30 18:11:32;;;;;;;6.07;1.40;;;;;;;12.87;67.55;101972.94;4979250;28;20028;-79
2021/09/30 18:13:59;;;;;;;5.72;1.42;;;;;;;12.91;67.67;101964.78;4996851;28;20080;-82
2021/09/30 18:16:25;;;;;;;4.68;1.40;;;;;;;12.87;66.93;101963.19;4996728;28;20493;-80
2021/09/30 18:18:53;;;;;;;4.13;1.42;;;;;;;12.94;66.96;101963.78;4996467;28;20041;-81
2021/09/30 18:21:19;;;;;;;2.97;1.20;;;;;;;12.95;66.97;101955.75;4996781;28;20109;-80
2021/09/30 18:23:48;;;;;;;4.40;1.35;;;;;;;12.98;66.73;101961.84;4996450;28;20389;-80
2021/09/30 18:26:15;;;;;;;6.82;1.83;;;;;;;13.00;66.70;101963.53;4979225;28;20096;-82
2021/09/30 18:28:51;;;;;;;5.93;1.27;;;;;;;13.01;65.88;101959.91;4996425;28;20026;-80
2021/09/30 18:31:19;;;;;;;3.47;1.00;;;;;;;13.00;65.95;101952.91;4996527;28;20038;-78
2021/09/30 18:33:45;;;;;;;6.05;1.88;;;;;;;12.99;65.57;101960.94;4996235;28;20034;-78
2021/09/30 18:36:10;;;;;;;4.55;1.35;;;;;;;13.06;65.79;101960.59;4996237;28;20027;-78
2021/09/30 18:38:36;;;;;;;3.30;1.40;;;;;;;13.02;66.18;101956.31;4995959;28;20378;-79
2021/09/30 18:41:03;;;;;;;4.68;1.30;;;;;;;13.04;66.04;101951.81;4995906;28;20038;-80
2021/09/30 18:43:28;;;;;;;4.60;1.30;;;;;;;12.94;66.36;101954.03;4995892;28;20026;-77
2021/09/30 18:45:54;;;;;;;5.47;1.80;;;;;;;13.00;66.57;101954.69;4978258;28;20026;-78
2021/09/30 18:48:19;;;;;;;6.80;1.50;;;;;;;13.01;66.96;101944.00;4995632;28;20049;-78
2021/09/30 18:50:45;;;;;;;6.45;1.67;;;;;;;13.06;66.90;101949.97;4995448;28;20026;-78
2021/09/30 18:53:10;;;;;;;4.38;1.60;;;;;;;13.03;66.73;101946.56;4995514;28;20410;-78
2021/09/30 18:55:36;;;;;;;4.70;1.48;;;;;;;12.99;67.15;101939.69;4995201;28;20030;-78
2021/09/30 18:58:01;;;;;;;4.63;1.70;;;;;;;13.03;66.93;101931.53;4978042;28;20029;-79
2021/09/30 19:00:27;;;;;;;5.55;1.50;;;;;;;13.02;66.77;101935.09;4978129;28;20076;-80
2021/09/30 19:02:52;;;;;;;5.82;2.13;;;;;;;13.00;67.53;101933.44;4978517;28;20156;-79
2021/09/30 19:05:17;;;;;;;6.60;1.60;;;;;;;12.99;67.23;101931.72;4995996;28;20032;-80
2021/09/30 19:07:43;;;;;;;7.05;1.95;;;;;;;13.03;67.09;101935.97;4995988;28;20104;-79
2021/09/30 19:10:08;;;;;;;4.68;1.50;;;;;;;13.06;67.40;101934.03;4991703;28;20420;-79
2021/09/30 19:12:34;;;;;;;4.07;1.40;;;;;;;13.06;67.33;101928.72;4976221;28;20038;-79
2021/09/30 19:15:06;;;;;;;5.82;1.55;;;;;;;13.02;66.92;101928.94;4994321;28;20129;-81
2021/09/30 19:17:31;;;;;;;6.68;1.50;;;;;;;13.05;67.38;101921.66;4994323;28;20465;-82
2021/09/30 19:19:58;;;;;;;3.78;1.30;;;;;;;12.95;67.47;101917.72;4993937;28;20026;-81
2021/09/30 19:22:25;;;;;;;5.68;1.58;;;;;;;13.02;67.63;101924.47;4994090;28;20377;-81
2021/09/30 19:24:50;;;;;;;3.95;1.80;;;;;;;12.98;67.38;101917.59;4976420;28;20031;-81
2021/09/30 19:27:16;;;;;;;6.45;1.70;;;;;;;12.98;67.76;101895.47;4994321;28;20270;-80
2021/09/30 19:29:42;;;;;;;2.53;1.30;;;;;;;12.92;67.46;101912.56;4994311;28;20453;-80
2021/09/30 19:32:07;;;;;;;3.47;1.30;;;;;;;12.92;67.70;101892.19;4994221;28;20037;-81
2021/09/30 19:34:36;;;;;;;4.35;1.45;;;;;;;12.92;67.95;101912.56;4993781;28;20027;-80
2021/09/30 19:37:02;;;;;;;8.95;1.77;;;;;;;12.87;68.22;101899.50;4991235;28;20074;-80
2021/09/30 19:39:28;;;;;;;6.07;1.60;;;;;;;12.88;67.88;101905.69;4993625;28;20038;-80
2021/09/30 19:41:53;;;;;;;5.00;1.70;;;;;;;12.83;67.57;101901.41;4993497;28;20033;-79
2021/09/30 19:44:19;;;;;;;5.55;1.60;;;;;;;12.83;67.96;101895.25;4993243;28;20023;-80
2021/09/30 19:46:44;;;;;;;4.35;1.73;;;;;;;12.86;67.97;101892.47;4993489;28;20018;-81
2021/09/30 19:49:10;;;;;;;3.58;1.60;;;;;;;12.87;68.03;101880.91;4993416;28;20085;-77
2021/09/30 19:51:35;;;;;;;11.30;2.00;;;;;;;12.80;67.43;101876.81;4993412;28;20465;-79
2021/09/30 19:54:02;;;;;;;5.38;1.70;;;;;;;12.81;67.69;101883.84;4993327;28;20030;-79
2021/09/30 19:56:27;;;;;;;4.97;1.98;;;;;;;12.75;67.48;101871.72;4976043;28;20027;-81
2021/09/30 19:58:52;;;;;;;2.97;1.60;;;;;;;12.70;68.04;101863.09;4993760;28;20098;-79
2021/09/30 20:01:20;;;;;;;7.57;1.95;;;;;;;12.69;67.79;101872.84;4994292;28;20022;-79
2021/09/30 20:03:45;;;;;;;2.97;1.50;;;;;;;12.68;68.19;101867.63;4975845;28;20111;-78
2021/09/30 20:06:11;;;;;;;5.05;1.48;;;;;;;12.58;67.97;101864.53;4994118;28;20022;-78
2021/09/30 20:08:37;;;;;;;5.97;2.08;;;;;;;12.64;68.09;101869.56;4994113;28;20474;-78
2021/09/30 20:11:03;;;;;;;6.47;1.60;;;;;;;12.65;68.07;101870.41;4977271;28;20374;-80
2021/09/30 20:13:31;;;;;;;6.05;1.50;;;;;;;12.69;68.24;101861.41;4993250;28;20052;-80
2021/09/30 20:15:57;;;;;;;4.13;1.58;;;;;;;12.65;68.02;101854.47;4977362;28;20165;-78
2021/09/30 20:18:22;;;;;;;4.45;1.92;;;;;;;12.63;68.34;101851.06;4976957;28;20022;-78
2021/09/30 20:20:48;;;;;;;4.43;1.85;;;;;;;12.63;67.94;101851.91;4994269;28;20030;-78
2021/09/30 20:23:14;;;;;;;5.43;1.70;;;;;;;12.64;68.03;101850.13;4976845;28;20030;-78
2021/09/30 20:25:42;;;;;;;6.43;1.50;;;;;;;12.70;67.55;101848.06;4994258;28;20089;-78
2021/09/30 20:28:08;;;;;;;6.35;1.80;;;;;;;12.70;67.67;101850.72;4994172;28;20023;-78
2021/09/30 20:30:33;;;;;;;3.88;1.40;;;;;;;12.77;67.88;101848.63;4976886;28;20030;-78
2021/09/30 20:32:59;;;;;;;4.18;1.80;;;;;;;12.77;67.73;101847.78;4993665;28;20030;-79
2021/09/30 20:37:49;;;;;;;7.28;1.70;;;;;;;12.70;68.06;101847.19;4983128;23;20214;-85
2021/09/30 20:40:15;;;;;;;2.95;1.30;;;;;;;12.74;67.94;101856.72;4942313;29;20039;-82
2021/09/30 20:42:42;;;;;;;6.68;1.52;;;;;;;12.75;67.70;101861.13;4941395;29;20027;-79
2021/09/30 20:45:08;;;;;;;4.07;1.58;;;;;;;12.77;67.58;101853.91;4923780;29;20031;-79
2021/09/30 20:47:33;;;;;;;4.63;1.58;;;;;;;12.77;67.80;101851.25;4955902;29;20113;-79
2021/09/30 20:50:00;;;;;;;4.93;1.60;;;;;;;12.78;67.79;101853.00;4955951;29;20023;-78
2021/09/30 20:52:25;;;;;;;8.25;1.70;;;;;;;12.83;67.43;101848.31;4955491;29;20110;-82
2021/09/30 20:54:52;;;;;;;4.32;1.40;;;;;;;12.82;67.58;101841.31;4956329;29;20037;-83
2021/09/30 20:57:19;;;;;;;6.85;1.85;;;;;;;12.82;67.23;101838.66;4964208;28;20027;-77
2021/09/30 20:59:45;;;;;;;4.15;1.80;;;;;;;12.85;67.13;101842.94;4967816;28;20039;-82
2021/09/30 21:02:10;;;;;;;3.78;1.80;;;;;;;12.87;66.87;101848.19;4966420;28;20027;-78
2021/09/30 21:04:36;;;;;;;5.35;1.60;;;;;;;12.87;67.10;101849.06;4951563;29;20024;-83
2021/09/30 21:07:01;;;;;;;7.22;1.60;;;;;;;12.87;67.00;101842.88;4963405;28;20521;-82
2021/09/30 21:09:27;;;;;;;8.20;2.03;;;;;;;12.84;67.23;101841.25;4957017;29;20031;-81
2021/09/30 21:11:52;;;;;;;5.55;2.10;;;;;;;12.86;66.67;101842.03;4938771;28;20038;-80
2021/09/30 21:14:17;;;;;;;4.05;1.80;;;;;;;12.88;66.76;101845.47;4956087;28;20038;-83
2021/09/30 21:16:43;;;;;;;4.55;1.70;;;;;;;12.94;66.95;101833.72;4954931;29;20022;-84
2021/09/30 21:19:09;;;;;;;5.45;1.30;;;;;;;12.94;66.55;101828.41;4955535;29;20023;-78
2021/09/30 21:21:35;;;;;;;4.75;1.60;;;;;;;12.94;66.78;101829.25;4955341;29;20026;-81
2021/09/30 21:24:00;;;;;;;8.80;1.58;;;;;;;12.95;66.69;101808.88;4955431;28;20031;-81
2021/09/30 21:26:26;;;;;;;5.60;1.50;;;;;;;12.96;66.31;101816.75;4955093;28;20435;-82
2021/09/30 21:28:52;;;;;;;5.07;1.65;;;;;;;12.99;66.27;101817.56;4954371;28;20039;-79
2021/09/30 21:31:18;;;;;;;5.85;1.38;;;;;;;13.04;66.20;101812.88;4954664;28;20106;-82
2021/09/30 21:33:43;;;;;;;6.53;1.58;;;;;;;13.04;65.96;101807.56;4937652;29;20035;-79
2021/09/30 21:36:09;;;;;;;3.88;1.30;;;;;;;13.00;66.23;101804.22;4937374;29;20062;-83
2021/09/30 21:38:38;;;;;;;3.03;1.90;;;;;;;13.01;65.72;101811.22;4955694;29;20379;-78
2021/09/30 21:41:04;;;;;;;6.20;1.40;;;;;;;13.03;66.56;101812.03;4956990;29;20031;-80
2021/09/30 21:43:30;;;;;;;3.35;1.30;;;;;;;13.03;66.45;101812.03;4957136;28;20041;-80
2021/09/30 21:45:55;;;;;;;5.22;1.70;;;;;;;13.04;66.19;101808.44;4961560;29;20378;-79
2021/09/30 21:48:21;;;;;;;4.53;1.50;;;;;;;13.09;66.30;101800.25;4962162;29;20492;-80
2021/09/30 21:50:52;;;;;;;5.47;1.70;;;;;;;13.13;66.20;101795.66;4963785;29;20059;-81
2021/09/30 21:53:17;;;;;;;5.32;1.52;;;;;;;13.13;66.07;101790.34;4964753;28;20031;-80
2021/09/30 21:55:43;;;;;;;5.10;1.20;;;;;;;13.12;65.70;101789.47;4965106;28;20038;-78
2021/09/30 21:58:08;;;;;;;4.30;1.42;;;;;;;13.10;65.85;101787.84;4964939;28;20031;-78
2021/09/30 22:00:48;;;;;;;4.22;1.40;;;;;;;13.11;66.01;101787.75;4962455;29;20034;-80
2021/09/30 22:03:15;;;;;;;5.50;2.03;;;;;;;13.04;65.86;101783.66;4942637;29;20047;-80
2021/09/30 22:06:01;;;;;;;5.00;1.83;;;;;;;13.09;65.99;101786.97;4959671;28;20129;-81
2021/09/30 22:08:26;;;;;;;8.38;1.95;;;;;;;13.07;66.36;101773.75;4941120;29;20031;-80
2021/09/30 22:10:52;;;;;;;6.00;1.65;;;;;;;13.05;66.33;101783.59;4942388;29;20034;-81
2021/09/30 22:13:18;;;;;;;7.70;1.88;;;;;;;13.06;66.25;101769.41;4959466;29;20035;-83
2021/09/30 22:15:43;;;;;;;7.80;1.80;;;;;;;13.04;66.81;101762.41;4958220;28;20035;-80
2021/09/30 22:18:09;;;;;;;3.17;1.50;;;;;;;12.99;67.72;101769.78;4925324;29;20030;-82
2021/09/30 22:20:34;;;;;;;5.70;1.63;;;;;;;12.80;68.74;101779.47;4958204;29;20034;-79
2021/09/30 22:23:00;;;;;;;4.30;1.58;;;;;;;12.70;70.11;101779.06;4957711;29;20035;-80
2021/09/30 22:25:26;;;;;;;4.47;1.73;;;;;;;12.52;71.85;101780.75;4940735;28;20034;-80
2021/09/30 22:27:53;;;;;;;4.68;1.73;;;;;;;12.33;72.80;101789.56;4957992;28;20027;-81
2021/09/30 22:30:18;;;;;;;6.80;1.55;;;;;;;12.31;73.28;101767.56;4958009;29;20038;-80
2021/09/30 22:32:44;;;;;;;3.65;1.60;;;;;;;12.16;74.45;101760.31;4957744;29;20097;-79
2021/09/30 22:35:28;;;;;;;7.47;1.85;;;;;;;12.05;75.72;101760.75;4958115;28;20525;-78
2021/09/30 22:37:53;;;;;;;6.95;1.70;;;;;;;12.04;75.26;101759.03;4957728;28;20047;-78
2021/09/30 22:40:19;;;;;;;5.93;1.63;;;;;;;12.03;75.15;101752.88;4957713;29;20039;-79
2021/09/30 22:42:44;;;;;;;5.57;1.58;;;;;;;12.04;75.20;101743.13;4957721;29;20045;-79
2021/09/30 22:45:10;;;;;;;3.88;1.70;;;;;;;12.11;74.30;101739.31;4957513;28;20046;-79
2021/09/30 22:47:35;;;;;;;4.85;1.58;;;;;;;12.19;74.09;101738.97;4957459;28;20031;-79
2021/09/30 22:50:03;;;;;;;4.65;1.70;;;;;;;12.21;73.87;101743.25;4957385;28;20034;-79
2021/09/30 22:52:28;;;;;;;7.03;2.22;;;;;;;12.22;73.66;101733.53;4957551;28;20394;-79
2021/09/30 22:54:54;;;;;;;3.17;1.60;;;;;;;12.21;74.34;101714.09;4940880;28;20047;-79
2021/09/30 22:57:20;;;;;;;5.60;1.88;;;;;;;12.22;74.12;101720.25;4957446;28;20058;-78
2021/09/30 22:59:45;;;;;;;6.40;1.77;;;;;;;12.26;74.04;101716.53;4957491;29;20474;-79
2021/09/30 23:02:11;;;;;;;6.22;1.85;;;;;;;12.30;73.68;101718.09;4957339;29;20035;-78
2021/09/30 23:04:36;;;;;;;3.75;2.10;;;;;;;12.38;72.76;101707.13;4956113;29;20027;-79
2021/09/30 23:07:02;;;;;;;4.18;1.52;;;;;;;12.52;71.57;101702.97;4957164;29;20031;-78
2021/09/30 23:09:27;;;;;;;6.00;1.90;;;;;;;12.55;71.36;101714.28;4956290;29;20130;-79
2021/09/30 23:11:52;;;;;;;4.50;1.83;;;;;;;12.68;70.80;101713.69;4957418;28;20082;-78
2021/09/30 23:14:18;;;;;;;9.38;1.85;;;;;;;12.66;70.57;101715.59;4957043;29;20030;-80
2021/09/30 23:16:44;;;;;;;6.35;1.83;;;;;;;12.75;69.92;101698.34;4957133;29;20028;-80
2021/09/30 23:19:10;;;;;;;8.13;1.75;;;;;;;12.78;69.86;101700.84;4956986;28;20138;-77
2021/09/30 23:21:35;;;;;;;7.70;1.70;;;;;;;12.78;69.80;101696.41;4956883;29;20023;-79
2021/09/30 23:24:01;;;;;;;5.47;1.77;;;;;;;12.78;70.14;101699.06;4956775;28;20034;-78
2021/09/30 23:26:26;;;;;;;5.60;1.75;;;;;;;12.79;70.22;101702.56;4956702;28;20027;-79
2021/09/30 23:28:51;;;;;;;5.03;1.85;;;;;;;12.69;70.01;101713.63;4939411;29;20034;-78
2021/09/30 23:31:18;;;;;;;4.88;1.55;;;;;;;12.75;70.12;101703.66;4956675;28;20101;-80
2021/09/30 23:33:45;;;;;;;5.88;1.88;;;;;;;12.72;70.05;101691.41;4957163;29;20031;-79
2021/09/30 23:36:10;;;;;;;5.78;1.77;;;;;;;12.67;69.80;101691.63;4956992;28;20431;-80
2021/09/30 23:38:36;;;;;;;6.40;1.90;;;;;;;12.69;69.82;101684.44;4956848;29;20090;-81
2021/09/30 23:41:01;;;;;;;6.43;1.58;;;;;;;12.70;69.69;101685.31;4957609;28;20062;-77
2021/09/30 23:43:26;;;;;;;4.95;1.70;;;;;;;12.80;69.66;101683.06;4956779;28;20055;-80
2021/09/30 23:45:52;;;;;;;3.17;1.58;;;;;;;12.78;68.82;101683.16;4956453;28;20027;-79
2021/09/30 23:48:17;;;;;;;4.88;1.80;;;;;;;12.85;68.42;101677.53;4956440;28;20056;-79
2021/09/30 23:50:43;;;;;;;4.05;1.60;;;;;;;12.87;68.55;101671.22;4956536;28;20102;-79
2021/09/30 23:53:08;;;;;;;5.57;1.67;;;;;;;12.91;68.11;101679.88;4956116;28;20379;-81
2021/09/30 23:55:34;;;;;;;5.63;1.73;;;;;;;12.98;68.23;101677.75;4956316;29;20023;-81
2021/09/30 23:57:59;;;;;;;9.43;1.98;;;;;;;12.98;68.28;101669.81;4956309;29;20028;-79
